createdAt,value
2019-02-28T00:00:32.553Z,0.00
2019-02-28T00:01:38.070Z,0.00
2019-02-28T00:02:43.574Z,0.00
2019-02-28T00:03:49.079Z,0.00
2019-02-28T00:04:54.591Z,0.00
2019-02-28T00:06:00.109Z,0.00
2019-02-28T00:07:05.609Z,0.00
2019-02-28T00:08:11.123Z,0.00
2019-02-28T00:09:16.630Z,0.00
2019-02-28T00:10:22.144Z,0.00
2019-02-28T00:11:27.645Z,0.00
2019-02-28T00:12:33.155Z,0.00
2019-02-28T00:13:38.661Z,0.00
2019-02-28T00:14:45.552Z,0.00
2019-02-28T00:15:49.690Z,0.00
2019-02-28T00:16:55.200Z,0.00
2019-02-28T00:18:00.713Z,0.00
2019-02-28T00:19:06.215Z,0.00
2019-02-28T00:20:11.716Z,0.00
2019-02-28T00:21:17.226Z,0.00
2019-02-28T00:22:22.733Z,0.00
2019-02-28T00:23:28.246Z,0.00
2019-02-28T00:24:33.763Z,0.00
2019-02-28T00:25:39.259Z,0.00
2019-02-28T00:26:47.666Z,0.00
2019-02-28T00:27:52.620Z,0.00
2019-02-28T00:28:57.059Z,0.00
2019-02-28T00:30:01.296Z,0.00
2019-02-28T00:31:06.815Z,0.00
2019-02-28T00:32:12.315Z,0.00
2019-02-28T00:33:17.837Z,0.00
2019-02-28T00:34:23.334Z,0.00
2019-02-28T00:35:28.846Z,0.00
2019-02-28T00:36:34.354Z,0.00
2019-02-28T00:37:39.864Z,0.00
2019-02-28T00:38:45.383Z,0.00
2019-02-28T00:39:50.881Z,0.00
2019-02-28T00:40:56.388Z,0.00
2019-02-28T00:42:01.911Z,0.00
2019-02-28T00:43:07.411Z,0.00
2019-02-28T00:44:12.917Z,0.00
2019-02-28T00:45:18.426Z,0.00
2019-02-28T00:46:23.953Z,0.00
2019-02-28T00:47:29.446Z,0.00
2019-02-28T00:48:34.955Z,0.00
2019-02-28T00:49:40.474Z,0.00
2019-02-28T00:50:45.970Z,0.00
2019-02-28T00:51:51.482Z,0.00
2019-02-28T00:52:56.989Z,0.00
2019-02-28T00:54:02.495Z,0.00
2019-02-28T00:55:08.007Z,0.00
2019-02-28T00:56:13.518Z,0.00
2019-02-28T00:57:19.026Z,0.00
2019-02-28T00:58:28.666Z,0.00
2019-02-28T00:59:31.728Z,0.00
2019-02-28T01:00:37.152Z,0.00
2019-02-28T01:01:43.049Z,0.00
2019-02-28T01:02:52.132Z,0.00
2019-02-28T01:03:52.078Z,0.00
2019-02-28T01:04:57.588Z,0.00
2019-02-28T01:06:03.101Z,0.00
2019-02-28T01:07:08.606Z,0.00
2019-02-28T01:08:14.151Z,0.00
2019-02-28T01:09:19.631Z,0.00
2019-02-28T01:10:25.130Z,0.00
2019-02-28T01:11:30.642Z,0.00
2019-02-28T01:12:36.153Z,0.00
2019-02-28T01:13:41.660Z,0.00
2019-02-28T01:14:47.170Z,0.00
2019-02-28T01:15:52.678Z,0.00
2019-02-28T01:16:58.188Z,0.00
2019-02-28T01:18:03.695Z,0.00
2019-02-28T01:19:10.232Z,0.00
2019-02-28T01:20:16.263Z,0.00
2019-02-28T01:21:23.650Z,0.00
2019-02-28T01:22:26.715Z,0.00
2019-02-28T01:23:31.243Z,0.00
2019-02-28T01:24:36.749Z,0.00
2019-02-28T01:25:42.262Z,0.00
2019-02-28T01:26:47.762Z,0.00
2019-02-28T01:27:53.279Z,0.00
2019-02-28T01:29:02.049Z,0.00
2019-02-28T01:30:06.726Z,0.00
2019-02-28T01:31:11.676Z,0.00
2019-02-28T01:32:16.280Z,0.00
2019-02-28T01:33:24.651Z,0.00
2019-02-28T01:34:29.054Z,0.00
2019-02-28T01:35:31.836Z,0.00
2019-02-28T01:36:37.349Z,0.00
2019-02-28T01:37:42.864Z,0.00
2019-02-28T01:38:48.363Z,0.00
2019-02-28T01:39:53.873Z,0.00
2019-02-28T01:40:59.398Z,0.00
2019-02-28T01:42:04.891Z,0.00
2019-02-28T01:43:10.400Z,0.00
2019-02-28T01:44:15.911Z,0.00
2019-02-28T01:45:21.419Z,0.00
2019-02-28T01:46:26.926Z,0.00
2019-02-28T01:47:32.436Z,0.00
2019-02-28T01:48:37.947Z,0.00
2019-02-28T01:49:43.453Z,0.00
2019-02-28T01:50:48.961Z,0.00
2019-02-28T01:51:54.469Z,0.00
2019-02-28T01:52:59.979Z,0.00
2019-02-28T01:54:05.493Z,0.00
2019-02-28T01:55:10.998Z,0.00
2019-02-28T01:56:16.506Z,0.00
2019-02-28T01:57:22.013Z,0.00
2019-02-28T01:58:27.523Z,0.00
2019-02-28T01:59:33.038Z,0.00
2019-02-28T02:00:38.539Z,0.00
2019-02-28T02:01:44.049Z,0.00
2019-02-28T02:02:49.557Z,0.00
2019-02-28T02:03:55.068Z,0.00
2019-02-28T02:05:00.582Z,0.00
2019-02-28T02:06:06.081Z,0.00
2019-02-28T02:07:11.596Z,0.00
2019-02-28T02:08:17.102Z,0.00
2019-02-28T02:09:22.614Z,0.00
2019-02-28T02:10:28.122Z,0.00
2019-02-28T02:11:33.629Z,0.00
2019-02-28T02:12:39.135Z,0.00
2019-02-28T02:13:44.651Z,0.00
2019-02-28T02:14:50.164Z,0.00
2019-02-28T02:15:55.660Z,0.00
2019-02-28T02:17:01.908Z,0.00
2019-02-28T02:18:09.441Z,0.00
2019-02-28T02:19:17.571Z,0.00
2019-02-28T02:20:17.709Z,0.00
2019-02-28T02:21:23.209Z,0.00
2019-02-28T02:22:28.715Z,0.00
2019-02-28T02:23:34.223Z,0.00
2019-02-28T02:24:39.738Z,0.00
2019-02-28T02:25:45.242Z,0.00
2019-02-28T02:26:50.750Z,0.00
2019-02-28T02:27:56.259Z,0.00
2019-02-28T02:29:01.957Z,0.00
2019-02-28T02:30:13.284Z,0.00
2019-02-28T02:31:12.783Z,0.00
2019-02-28T02:32:18.297Z,0.00
2019-02-28T02:33:23.804Z,0.00
2019-02-28T02:34:29.611Z,0.00
2019-02-28T02:35:34.826Z,0.00
2019-02-28T02:36:40.329Z,0.00
2019-02-28T02:37:45.846Z,0.00
2019-02-28T02:38:51.350Z,0.00
2019-02-28T02:39:56.855Z,0.00
2019-02-28T02:41:04.807Z,0.00
2019-02-28T02:42:11.377Z,0.00
2019-02-28T02:43:13.378Z,0.00
2019-02-28T02:44:18.896Z,0.00
2019-02-28T02:45:24.399Z,0.00
2019-02-28T02:46:29.912Z,0.00
2019-02-28T02:47:35.415Z,0.00
2019-02-28T02:48:42.382Z,0.00
2019-02-28T02:49:46.436Z,0.00
2019-02-28T02:50:51.953Z,0.00
2019-02-28T02:51:57.456Z,0.00
2019-02-28T02:53:05.424Z,0.00
2019-02-28T02:54:08.470Z,0.00
2019-02-28T02:55:13.978Z,0.00
2019-02-28T02:56:19.484Z,0.00
2019-02-28T02:57:24.992Z,0.00
2019-02-28T02:58:30.503Z,0.00
2019-02-28T02:59:39.076Z,0.00
2019-02-28T03:00:41.525Z,0.00
2019-02-28T03:01:47.053Z,0.00
2019-02-28T03:02:52.537Z,0.00
2019-02-28T03:03:58.050Z,0.00
2019-02-28T03:05:03.560Z,0.00
2019-02-28T03:06:13.973Z,0.00
2019-02-28T03:07:23.342Z,0.00
2019-02-28T03:08:20.087Z,0.00
2019-02-28T03:09:25.608Z,0.00
2019-02-28T03:10:31.106Z,0.00
2019-02-28T03:11:36.618Z,0.00
2019-02-28T03:12:42.125Z,0.00
2019-02-28T03:13:47.628Z,0.00
2019-02-28T03:14:53.139Z,0.00
2019-02-28T03:15:59.507Z,0.00
2019-02-28T03:17:09.676Z,0.00
2019-02-28T03:18:09.667Z,0.00
2019-02-28T03:19:15.174Z,0.00
2019-02-28T03:20:20.682Z,0.00
2019-02-28T03:21:26.191Z,0.00
2019-02-28T03:22:31.703Z,0.00
2019-02-28T03:23:40.168Z,0.00
2019-02-28T03:24:42.725Z,0.00
2019-02-28T03:25:48.234Z,0.00
2019-02-28T03:26:53.737Z,0.00
2019-02-28T03:27:59.251Z,0.00
2019-02-28T03:29:07.894Z,0.00
2019-02-28T03:30:10.281Z,0.00
2019-02-28T03:31:16.067Z,0.00
2019-02-28T03:32:21.284Z,0.00
2019-02-28T03:33:28.756Z,0.00
2019-02-28T03:34:32.307Z,0.00
2019-02-28T03:35:43.403Z,0.00
2019-02-28T03:36:43.326Z,0.00
2019-02-28T03:37:48.834Z,0.00
2019-02-28T03:38:54.344Z,0.00
2019-02-28T03:40:04.387Z,0.00
2019-02-28T03:41:05.358Z,0.00
2019-02-28T03:42:10.875Z,0.00
2019-02-28T03:43:16.386Z,0.00
2019-02-28T03:44:22.004Z,0.00
2019-02-28T03:45:33.907Z,0.00
2019-02-28T03:46:32.915Z,0.00
2019-02-28T03:47:38.426Z,0.00
2019-02-28T03:48:43.926Z,0.00
2019-02-28T03:49:50.294Z,0.00
2019-02-28T03:50:55.520Z,0.00
2019-02-28T03:52:05.423Z,0.00
2019-02-28T03:53:05.965Z,0.00
2019-02-28T03:54:11.472Z,0.00
2019-02-28T03:55:16.983Z,0.00
2019-02-28T03:56:22.492Z,0.00
2019-02-28T03:57:29.329Z,0.00
2019-02-28T03:58:41.800Z,0.00
2019-02-28T03:59:39.029Z,0.00
2019-02-28T04:00:44.538Z,0.00
2019-02-28T04:01:50.038Z,0.00
2019-02-28T04:02:58.466Z,0.00
2019-02-28T04:04:01.055Z,0.00
2019-02-28T04:05:06.564Z,0.00
2019-02-28T04:06:12.080Z,0.00
2019-02-28T04:07:17.584Z,24.00
2019-02-28T04:08:29.373Z,20.00
2019-02-28T04:09:28.653Z,20.00
2019-02-28T04:10:34.114Z,20.00
2019-02-28T04:11:39.621Z,20.00
2019-02-28T04:12:46.914Z,20.00
2019-02-28T04:13:52.446Z,20.00
2019-02-28T04:14:56.153Z,20.00
2019-02-28T04:16:08.631Z,20.00
2019-02-28T04:17:07.172Z,20.00
2019-02-28T04:18:12.680Z,20.00
2019-02-28T04:19:22.616Z,20.00
2019-02-28T04:20:23.698Z,20.00
2019-02-28T04:21:29.211Z,20.00
2019-02-28T04:22:34.725Z,20.00
2019-02-28T04:23:40.229Z,20.00
2019-02-28T04:24:47.539Z,20.00
2019-02-28T04:25:51.243Z,20.00
2019-02-28T04:26:56.756Z,16.00
2019-02-28T04:28:02.270Z,16.00
2019-02-28T04:29:07.774Z,16.00
2019-02-28T04:30:13.285Z,16.00
2019-02-28T04:31:20.138Z,16.00
2019-02-28T04:32:27.591Z,16.00
2019-02-28T04:33:29.811Z,16.00
2019-02-28T04:34:35.334Z,16.00
2019-02-28T04:35:40.833Z,16.00
2019-02-28T04:36:46.338Z,16.00
2019-02-28T04:37:51.854Z,16.00
2019-02-28T04:38:57.377Z,16.00
2019-02-28T04:40:02.868Z,16.00
2019-02-28T04:41:08.380Z,16.00
2019-02-28T04:42:13.891Z,16.00
2019-02-28T04:43:19.398Z,16.00
2019-02-28T04:44:24.907Z,16.00
2019-02-28T04:45:30.413Z,16.00
2019-02-28T04:46:35.923Z,16.00
2019-02-28T04:47:41.755Z,16.00
2019-02-28T04:48:48.442Z,16.00
2019-02-28T04:49:53.527Z,16.00
2019-02-28T04:50:57.967Z,16.00
2019-02-28T04:52:03.476Z,16.00
2019-02-28T04:53:08.990Z,16.00
2019-02-28T04:54:14.491Z,16.00
2019-02-28T04:55:20.003Z,16.00
2019-02-28T04:56:25.513Z,16.00
2019-02-28T04:57:31.020Z,16.00
2019-02-28T04:58:36.533Z,20.00
2019-02-28T04:59:42.057Z,20.00
2019-02-28T05:00:47.549Z,20.00
2019-02-28T05:01:53.056Z,16.00
2019-02-28T05:02:58.570Z,16.00
2019-02-28T05:04:04.073Z,16.00
2019-02-28T05:05:12.605Z,16.00
2019-02-28T05:06:15.098Z,16.00
2019-02-28T05:07:20.603Z,16.00
2019-02-28T05:08:26.111Z,16.00
2019-02-28T05:09:31.619Z,16.00
2019-02-28T05:10:37.129Z,16.00
2019-02-28T05:11:42.644Z,16.00
2019-02-28T05:12:48.154Z,0.00
2019-02-28T05:13:53.660Z,0.00
2019-02-28T05:15:02.159Z,0.00
2019-02-28T05:16:04.680Z,0.00
2019-02-28T05:17:10.189Z,0.00
2019-02-28T05:18:15.698Z,0.00
2019-02-28T05:19:21.212Z,0.00
2019-02-28T05:20:26.715Z,0.00
2019-02-28T05:21:32.223Z,0.00
2019-02-28T05:22:37.735Z,0.00
2019-02-28T05:23:43.243Z,0.00
2019-02-28T05:24:48.756Z,0.00
2019-02-28T05:25:54.263Z,0.00
2019-02-28T05:27:00.106Z,0.00
2019-02-28T05:28:06.583Z,0.00
2019-02-28T05:29:11.933Z,0.00
2019-02-28T05:30:19.424Z,0.00
2019-02-28T05:31:24.173Z,0.00
2019-02-28T05:32:27.319Z,0.00
2019-02-28T05:33:32.831Z,0.00
2019-02-28T05:34:38.339Z,0.00
2019-02-28T05:35:43.852Z,0.00
2019-02-28T05:36:49.354Z,0.00
2019-02-28T05:37:54.869Z,0.00
2019-02-28T05:39:00.379Z,0.00
2019-02-28T05:40:06.791Z,0.00
2019-02-28T05:41:12.125Z,0.00
2019-02-28T05:42:16.914Z,0.00
2019-02-28T05:43:22.412Z,0.00
2019-02-28T05:44:27.929Z,0.00
2019-02-28T05:45:33.438Z,0.00
2019-02-28T05:46:38.941Z,0.00
2019-02-28T05:47:46.681Z,0.00
2019-02-28T05:48:49.963Z,0.00
2019-02-28T05:49:55.468Z,0.00
2019-02-28T05:51:00.976Z,0.00
2019-02-28T05:52:06.490Z,0.00
2019-02-28T05:53:12.009Z,0.00
2019-02-28T05:54:17.531Z,0.00
2019-02-28T05:55:25.514Z,0.00
2019-02-28T05:56:32.771Z,0.00
2019-02-28T05:57:34.039Z,0.00
2019-02-28T05:58:39.552Z,4.00
2019-02-28T05:59:45.053Z,0.00
2019-02-28T06:00:50.570Z,0.00
2019-02-28T06:01:56.080Z,4.00
2019-02-28T06:03:02.643Z,4.00
2019-02-28T06:04:07.094Z,0.00
2019-02-28T06:05:12.917Z,4.00
2019-02-28T06:06:20.209Z,4.00
2019-02-28T06:07:25.967Z,4.00
2019-02-28T06:08:29.123Z,4.00
2019-02-28T06:09:34.646Z,8.00
2019-02-28T06:10:40.170Z,4.00
2019-02-28T06:11:45.668Z,8.00
2019-02-28T06:12:51.164Z,8.00
2019-02-28T06:13:56.677Z,8.00
2019-02-28T06:15:03.524Z,12.00
2019-02-28T06:16:11.309Z,12.00
2019-02-28T06:17:13.199Z,12.00
2019-02-28T06:18:18.714Z,16.00
2019-02-28T06:19:24.223Z,20.00
2019-02-28T06:20:29.729Z,20.00
2019-02-28T06:21:35.242Z,20.00
2019-02-28T06:22:40.755Z,24.00
2019-02-28T06:23:46.257Z,24.00
2019-02-28T06:24:51.772Z,28.00
2019-02-28T06:25:59.319Z,28.00
2019-02-28T06:27:03.677Z,32.00
2019-02-28T06:28:08.294Z,36.00
2019-02-28T06:29:13.809Z,40.00
2019-02-28T06:30:19.321Z,40.00
2019-02-28T06:31:24.826Z,40.00
2019-02-28T06:32:30.338Z,44.00
2019-02-28T06:33:35.844Z,48.00
2019-02-28T06:34:42.255Z,52.00
2019-02-28T06:35:49.590Z,52.00
2019-02-28T06:36:52.371Z,56.00
2019-02-28T06:37:57.877Z,56.00
2019-02-28T06:39:03.385Z,60.00
2019-02-28T06:40:08.897Z,64.00
2019-02-28T06:41:14.423Z,64.00
2019-02-28T06:42:19.913Z,68.00
2019-02-28T06:43:25.424Z,72.00
2019-02-28T06:44:30.935Z,72.00
2019-02-28T06:45:37.715Z,72.00
2019-02-28T06:46:41.953Z,76.00
2019-02-28T06:47:49.763Z,72.00
2019-02-28T06:48:52.972Z,80.00
2019-02-28T06:49:58.480Z,88.00
2019-02-28T06:51:03.991Z,92.00
2019-02-28T06:52:09.497Z,96.00
2019-02-28T06:53:15.011Z,96.00
2019-02-28T06:54:20.530Z,104.00
2019-02-28T06:55:26.029Z,108.00
2019-02-28T06:56:31.538Z,112.00
2019-02-28T06:57:37.041Z,112.00
2019-02-28T06:58:42.554Z,116.00
2019-02-28T06:59:48.065Z,120.00
2019-02-28T07:00:53.573Z,124.00
2019-02-28T07:01:59.083Z,124.00
2019-02-28T07:03:04.602Z,128.00
2019-02-28T07:04:11.450Z,132.00
2019-02-28T07:05:15.614Z,136.00
2019-02-28T07:06:21.121Z,136.00
2019-02-28T07:07:26.630Z,140.00
2019-02-28T07:08:32.138Z,148.00
2019-02-28T07:09:37.650Z,148.00
2019-02-28T07:10:44.892Z,152.00
2019-02-28T07:11:51.305Z,156.00
2019-02-28T07:12:54.178Z,156.00
2019-02-28T07:13:59.686Z,160.00
2019-02-28T07:15:05.197Z,160.00
2019-02-28T07:16:10.702Z,164.00
2019-02-28T07:17:16.224Z,168.00
2019-02-28T07:18:21.719Z,172.00
2019-02-28T07:19:27.231Z,176.00
2019-02-28T07:20:35.107Z,176.00
2019-02-28T07:21:42.875Z,180.00
2019-02-28T07:22:43.795Z,180.00
2019-02-28T07:23:49.276Z,184.00
2019-02-28T07:24:54.778Z,188.00
2019-02-28T07:26:00.285Z,192.00
2019-02-28T07:27:05.795Z,196.00
2019-02-28T07:28:11.305Z,196.00
2019-02-28T07:29:16.817Z,200.00
2019-02-28T07:30:22.327Z,204.00
2019-02-28T07:31:27.841Z,208.00
2019-02-28T07:32:34.304Z,208.00
2019-02-28T07:33:41.324Z,212.00
2019-02-28T07:34:44.360Z,216.00
2019-02-28T07:35:49.876Z,216.00
2019-02-28T07:36:55.387Z,220.00
2019-02-28T07:38:00.891Z,224.00
2019-02-28T07:39:06.416Z,228.00
2019-02-28T07:40:15.589Z,232.00
2019-02-28T07:41:17.420Z,236.00
2019-02-28T07:42:22.923Z,240.00
2019-02-28T07:43:28.433Z,244.00
2019-02-28T07:44:33.946Z,244.00
2019-02-28T07:45:39.454Z,244.00
2019-02-28T07:46:44.962Z,252.00
2019-02-28T07:47:52.719Z,252.00
2019-02-28T07:48:55.983Z,256.00
2019-02-28T07:50:01.493Z,260.00
2019-02-28T07:51:07.000Z,264.00
2019-02-28T07:52:12.514Z,268.00
2019-02-28T07:53:18.024Z,272.00
2019-02-28T07:54:23.537Z,272.00
2019-02-28T07:55:30.481Z,284.00
2019-02-28T07:56:34.554Z,284.00
2019-02-28T07:57:40.069Z,284.00
2019-02-28T07:58:45.695Z,288.00
2019-02-28T07:59:51.088Z,292.00
2019-02-28T08:00:56.596Z,292.00
2019-02-28T08:02:03.222Z,296.00
2019-02-28T08:03:07.606Z,300.00
2019-02-28T08:04:18.056Z,304.00
2019-02-28T08:05:18.642Z,308.00
2019-02-28T08:06:24.140Z,312.00
2019-02-28T08:07:29.645Z,312.00
2019-02-28T08:08:35.154Z,316.00
2019-02-28T08:09:41.532Z,320.00
2019-02-28T08:10:47.971Z,324.00
2019-02-28T08:11:55.511Z,328.00
2019-02-28T08:12:57.192Z,332.00
2019-02-28T08:14:02.705Z,324.00
2019-02-28T08:15:08.229Z,312.00
2019-02-28T08:16:13.725Z,328.00
2019-02-28T08:17:19.234Z,348.00
2019-02-28T08:18:24.749Z,360.00
2019-02-28T08:19:30.330Z,364.00
2019-02-28T08:20:35.761Z,372.00
2019-02-28T08:21:47.603Z,376.00
2019-02-28T08:22:46.787Z,372.00
2019-02-28T08:23:52.294Z,380.00
2019-02-28T08:24:57.803Z,380.00
2019-02-28T08:26:03.327Z,380.00
2019-02-28T08:27:08.821Z,384.00
2019-02-28T08:28:14.329Z,384.00
2019-02-28T08:29:19.843Z,388.00
2019-02-28T08:30:25.353Z,392.00
2019-02-28T08:31:31.994Z,388.00
2019-02-28T08:32:36.379Z,372.00
2019-02-28T08:33:41.880Z,380.00
2019-02-28T08:34:47.402Z,376.00
2019-02-28T08:35:52.910Z,376.00
2019-02-28T08:36:58.408Z,368.00
2019-02-28T08:38:03.921Z,376.00
2019-02-28T08:39:10.069Z,388.00
2019-02-28T08:40:15.602Z,384.00
2019-02-28T08:41:22.466Z,392.00
2019-02-28T08:42:25.963Z,392.00
2019-02-28T08:43:31.481Z,404.00
2019-02-28T08:44:36.985Z,400.00
2019-02-28T08:45:42.501Z,396.00
2019-02-28T08:46:48.003Z,400.00
2019-02-28T08:47:56.608Z,404.00
2019-02-28T08:48:59.019Z,408.00
2019-02-28T08:50:04.535Z,408.00
2019-02-28T08:51:10.035Z,416.00
2019-02-28T08:52:15.559Z,420.00
2019-02-28T08:53:21.068Z,428.00
2019-02-28T08:54:27.546Z,436.00
2019-02-28T08:55:32.090Z,444.00
2019-02-28T08:56:37.597Z,444.00
2019-02-28T08:57:43.110Z,444.00
2019-02-28T08:58:48.626Z,452.00
2019-02-28T08:59:56.251Z,460.00
2019-02-28T09:00:59.647Z,460.00
2019-02-28T09:02:05.154Z,464.00
2019-02-28T09:03:10.663Z,468.00
2019-02-28T09:04:16.173Z,476.00
2019-02-28T09:05:25.460Z,480.00
2019-02-28T09:06:27.665Z,488.00
2019-02-28T09:07:32.704Z,492.00
2019-02-28T09:08:38.214Z,496.00
2019-02-28T09:09:43.726Z,496.00
2019-02-28T09:10:49.243Z,496.00
2019-02-28T09:11:58.200Z,492.00
2019-02-28T09:13:00.259Z,496.00
2019-02-28T09:14:05.770Z,504.00
2019-02-28T09:15:11.285Z,504.00
2019-02-28T09:16:16.800Z,500.00
2019-02-28T09:17:22.303Z,508.00
2019-02-28T09:18:27.816Z,512.00
2019-02-28T09:19:36.000Z,512.00
2019-02-28T09:20:41.331Z,516.00
2019-02-28T09:21:44.349Z,516.00
2019-02-28T09:22:49.861Z,532.00
2019-02-28T09:23:55.368Z,524.00
2019-02-28T09:25:00.885Z,536.00
2019-02-28T09:26:06.389Z,540.00
2019-02-28T09:27:12.330Z,548.00
2019-02-28T09:28:17.414Z,552.00
2019-02-28T09:29:22.924Z,568.00
2019-02-28T09:30:29.659Z,580.00
2019-02-28T09:31:38.496Z,584.00
2019-02-28T09:32:39.459Z,596.00
2019-02-28T09:33:44.972Z,608.00
2019-02-28T09:34:50.483Z,612.00
2019-02-28T09:35:55.990Z,624.00
2019-02-28T09:37:01.505Z,636.00
2019-02-28T09:38:13.019Z,656.00
2019-02-28T09:39:12.529Z,672.00
2019-02-28T09:40:18.038Z,684.00
2019-02-28T09:41:23.553Z,692.00
2019-02-28T09:42:29.075Z,696.00
2019-02-28T09:43:34.578Z,696.00
2019-02-28T09:44:40.086Z,660.00
2019-02-28T09:45:45.607Z,668.00
2019-02-28T09:46:51.689Z,632.00
2019-02-28T09:48:00.807Z,596.00
2019-02-28T09:49:02.129Z,600.00
2019-02-28T09:50:07.639Z,556.00
2019-02-28T09:51:13.167Z,448.00
2019-02-28T09:52:18.667Z,468.00
2019-02-28T09:53:24.176Z,552.00
2019-02-28T09:54:29.688Z,616.00
2019-02-28T09:55:35.557Z,688.00
2019-02-28T09:56:41.211Z,692.00
2019-02-28T09:57:46.221Z,656.00
2019-02-28T09:58:51.730Z,580.00
2019-02-28T09:59:57.246Z,492.00
2019-02-28T10:01:02.760Z,508.00
2019-02-28T10:02:09.394Z,604.00
2019-02-28T10:03:15.496Z,728.00
2019-02-28T10:04:19.297Z,744.00
2019-02-28T10:05:24.806Z,756.00
2019-02-28T10:06:30.316Z,728.00
2019-02-28T10:07:35.830Z,724.00
2019-02-28T10:08:41.341Z,692.00
2019-02-28T10:09:48.709Z,664.00
2019-02-28T10:10:55.452Z,676.00
2019-02-28T10:11:57.880Z,676.00
2019-02-28T10:13:03.392Z,728.00
2019-02-28T10:14:08.903Z,760.00
2019-02-28T10:15:14.406Z,784.00
2019-02-28T10:16:19.939Z,812.00
2019-02-28T10:17:25.881Z,844.00
2019-02-28T10:18:30.956Z,812.00
2019-02-28T10:19:44.743Z,800.00
2019-02-28T10:20:41.972Z,756.00
2019-02-28T10:21:51.873Z,764.00
2019-02-28T10:22:53.015Z,764.00
2019-02-28T10:23:58.510Z,780.00
2019-02-28T10:25:06.470Z,756.00
2019-02-28T10:26:09.528Z,724.00
2019-02-28T10:27:15.051Z,700.00
2019-02-28T10:28:20.560Z,708.00
2019-02-28T10:29:26.068Z,724.00
2019-02-28T10:30:32.582Z,788.00
2019-02-28T10:31:38.448Z,848.00
2019-02-28T10:32:43.391Z,884.00
2019-02-28T10:33:49.533Z,876.00
2019-02-28T10:34:53.633Z,864.00
2019-02-28T10:35:59.143Z,880.00
2019-02-28T10:37:04.665Z,892.00
2019-02-28T10:38:10.171Z,936.00
2019-02-28T10:39:15.685Z,952.00
2019-02-28T10:40:21.193Z,932.00
2019-02-28T10:41:28.029Z,976.00
2019-02-28T10:42:32.221Z,976.00
2019-02-28T10:43:37.735Z,944.00
2019-02-28T10:44:43.247Z,924.00
2019-02-28T10:45:48.764Z,932.00
2019-02-28T10:46:54.768Z,960.00
2019-02-28T10:48:02.867Z,1000.00
2019-02-28T10:49:05.295Z,980.00
2019-02-28T10:50:10.810Z,880.00
2019-02-28T10:51:16.330Z,876.00
2019-02-28T10:52:23.434Z,920.00
2019-02-28T10:53:27.347Z,928.00
2019-02-28T10:54:32.864Z,964.00
2019-02-28T10:55:38.407Z,984.00
2019-02-28T10:56:43.889Z,908.00
2019-02-28T10:57:49.405Z,1032.00
2019-02-28T10:58:54.913Z,1060.00
2019-02-28T11:00:00.424Z,1088.00
2019-02-28T11:01:08.706Z,1084.00
2019-02-28T11:02:13.505Z,1032.00
2019-02-28T11:03:16.956Z,1008.00
2019-02-28T11:04:22.480Z,1016.00
2019-02-28T11:05:27.991Z,1140.00
2019-02-28T11:06:33.507Z,1148.00
2019-02-28T11:07:39.031Z,1188.00
2019-02-28T11:08:47.422Z,1172.00
2019-02-28T11:09:50.043Z,1188.00
2019-02-28T11:10:55.559Z,1180.00
2019-02-28T11:12:01.089Z,1248.00
2019-02-28T11:13:06.587Z,1296.00
2019-02-28T11:14:12.106Z,1136.00
2019-02-28T11:15:17.617Z,1124.00
2019-02-28T11:16:23.575Z,1364.00
2019-02-28T11:17:30.414Z,1284.00
2019-02-28T11:18:34.147Z,1140.00
2019-02-28T11:19:39.668Z,1092.00
2019-02-28T11:20:45.190Z,1120.00
2019-02-28T11:21:50.689Z,1152.00
2019-02-28T11:22:56.205Z,1160.00
2019-02-28T11:24:01.743Z,1236.00
2019-02-28T11:25:07.244Z,1296.00
2019-02-28T11:26:12.745Z,1268.00
2019-02-28T11:27:19.544Z,848.00
2019-02-28T11:28:27.788Z,1132.00
2019-02-28T11:29:29.311Z,1360.00
2019-02-28T11:30:36.132Z,1404.00
2019-02-28T11:31:40.317Z,1416.00
2019-02-28T11:32:45.828Z,1360.00
2019-02-28T11:33:51.340Z,1280.00
2019-02-28T11:34:56.851Z,1220.00
2019-02-28T11:36:02.368Z,1140.00
2019-02-28T11:37:08.901Z,1068.00
2019-02-28T11:38:13.396Z,1040.00
2019-02-28T11:39:18.909Z,1004.00
2019-02-28T11:40:24.435Z,984.00
2019-02-28T11:41:29.943Z,944.00
2019-02-28T11:42:35.449Z,896.00
2019-02-28T11:43:40.955Z,848.00
2019-02-28T11:44:47.492Z,824.00
2019-02-28T11:45:51.993Z,824.00
2019-02-28T11:46:57.516Z,832.00
2019-02-28T11:48:03.019Z,840.00
2019-02-28T11:49:08.531Z,872.00
2019-02-28T11:50:14.045Z,916.00
2019-02-28T11:51:19.557Z,948.00
2019-02-28T11:52:27.398Z,964.00
2019-02-28T11:53:30.588Z,984.00
2019-02-28T11:54:36.109Z,1008.00
2019-02-28T11:55:41.616Z,1032.00
2019-02-28T11:56:47.130Z,1020.00
2019-02-28T11:57:52.659Z,1012.00
2019-02-28T11:58:58.162Z,1012.00
2019-02-28T12:00:03.672Z,1032.00
2019-02-28T12:01:10.533Z,1068.00
2019-02-28T12:02:14.692Z,1092.00
2019-02-28T12:03:20.216Z,1112.00
2019-02-28T12:04:25.721Z,1128.00
2019-02-28T12:05:31.232Z,1148.00
2019-02-28T12:06:36.751Z,1180.00
2019-02-28T12:07:42.259Z,1212.00
2019-02-28T12:08:47.772Z,1268.00
2019-02-28T12:09:54.758Z,1336.00
2019-02-28T12:11:01.943Z,1396.00
2019-02-28T12:12:07.319Z,1536.00
2019-02-28T12:13:09.829Z,1704.00
2019-02-28T12:14:15.349Z,1772.00
2019-02-28T12:15:22.615Z,1792.00
2019-02-28T12:16:26.374Z,1732.00
2019-02-28T12:17:31.882Z,1808.00
2019-02-28T12:18:39.972Z,1820.00
2019-02-28T12:19:42.907Z,1872.00
2019-02-28T12:20:48.425Z,1932.00
2019-02-28T12:21:53.934Z,1956.00
2019-02-28T12:22:59.450Z,1936.00
2019-02-28T12:24:04.964Z,1948.00
2019-02-28T12:25:10.474Z,1992.00
2019-02-28T12:26:17.815Z,2004.00
2019-02-28T12:27:24.427Z,2068.00
2019-02-28T12:28:27.009Z,2112.00
2019-02-28T12:29:32.528Z,2212.00
2019-02-28T12:30:38.044Z,2312.00
2019-02-28T12:31:43.557Z,2304.00
2019-02-28T12:32:49.071Z,2364.00
2019-02-28T12:33:56.821Z,2484.00
2019-02-28T12:35:01.312Z,2564.00
2019-02-28T12:36:05.614Z,2616.00
2019-02-28T12:37:11.130Z,2600.00
2019-02-28T12:38:16.641Z,2656.00
2019-02-28T12:39:23.649Z,2808.00
2019-02-28T12:40:27.679Z,3016.00
2019-02-28T12:41:33.185Z,3124.00
2019-02-28T12:42:38.699Z,3116.00
2019-02-28T12:43:44.215Z,3388.00
2019-02-28T12:44:49.736Z,5304.00
2019-02-28T12:45:56.910Z,16320.00
2019-02-28T12:47:03.277Z,20000.00
2019-02-28T12:48:06.274Z,19232.00
2019-02-28T12:49:11.790Z,18432.00
2019-02-28T12:50:17.305Z,18688.00
2019-02-28T12:51:22.820Z,16608.00
2019-02-28T12:52:28.337Z,16096.00
2019-02-28T12:53:33.862Z,16480.00
2019-02-28T12:54:39.375Z,17696.00
2019-02-28T12:55:44.891Z,20224.00
2019-02-28T12:56:50.401Z,21472.00
2019-02-28T12:57:57.726Z,18432.00
2019-02-28T12:59:01.452Z,18112.00
2019-02-28T13:00:06.962Z,19008.00
2019-02-28T13:01:12.485Z,20000.00
2019-02-28T13:02:18.008Z,19392.00
2019-02-28T13:03:23.520Z,18208.00
2019-02-28T13:04:29.050Z,16224.00
2019-02-28T13:05:34.562Z,14944.00
2019-02-28T13:06:40.088Z,11336.00
2019-02-28T13:07:45.621Z,9768.00
2019-02-28T13:08:51.126Z,8852.00
2019-02-28T13:09:56.647Z,960.00
2019-02-28T13:11:04.489Z,972.00
2019-02-28T13:12:08.297Z,712.00
2019-02-28T13:13:13.208Z,1020.00
2019-02-28T13:14:18.734Z,1028.00
2019-02-28T13:15:24.254Z,932.00
2019-02-28T13:16:29.765Z,992.00
2019-02-28T13:17:35.291Z,1048.00
2019-02-28T13:18:43.624Z,1024.00
2019-02-28T13:19:46.344Z,7896.00
2019-02-28T13:20:51.858Z,6600.00
2019-02-28T13:21:57.381Z,8244.00
2019-02-28T13:23:02.892Z,8340.00
2019-02-28T13:24:09.834Z,8184.00
2019-02-28T13:25:13.938Z,7488.00
2019-02-28T13:26:19.454Z,8504.00
2019-02-28T13:27:24.978Z,9484.00
2019-02-28T13:28:30.498Z,9196.00
2019-02-28T13:29:36.018Z,9348.00
2019-02-28T13:30:49.024Z,7984.00
2019-02-28T13:31:47.060Z,10356.00
2019-02-28T13:32:52.585Z,10748.00
2019-02-28T13:34:00.995Z,13536.00
2019-02-28T13:35:07.498Z,10612.00
2019-02-28T13:36:09.151Z,12672.00
2019-02-28T13:37:14.676Z,10440.00
2019-02-28T13:38:20.194Z,9852.00
2019-02-28T13:39:27.372Z,8176.00
2019-02-28T13:40:31.237Z,6128.00
2019-02-28T13:41:36.757Z,9688.00
2019-02-28T13:42:42.385Z,8912.00
2019-02-28T13:43:47.798Z,9660.00
2019-02-28T13:44:53.329Z,3372.00
2019-02-28T13:45:58.842Z,6504.00
2019-02-28T13:47:09.400Z,2176.00
2019-02-28T13:48:10.026Z,4992.00
2019-02-28T13:49:15.663Z,6932.00
2019-02-28T13:50:22.041Z,7892.00
2019-02-28T13:51:26.452Z,5920.00
2019-02-28T13:52:31.963Z,4036.00
2019-02-28T13:53:37.482Z,4956.00